Accueil
METAR-TAF:

METAR-TAF

Aéroports :

Aéroport de Carcassonne Salvaza

Carcassonne, France

latitude: 43-13N, longitude: 002-19E, altitude: 130 m

Observation

Le bulletin a été fait il y a 41 minutes, à 08:00 UTC
Vent 9 kt de ouest
Température 7°C
Humidité 76%
Pression 1037 hPa
Visibilité 10 km ou plus
Ciel couvert à une hauteur de 2000 ft

METAR: LFMK 050800Z AUTO 28009KT 9999 OVC020 07/03 Q1037 TEMPO 27016G26KT BKN012

Heure: 09:41 (08:41 UTC)

Prévision

Le bulletin a été fait il y a 2 heures et 38 minutes, à 06:03 UTC
Prévision valable du 05 à 06 UTC au 06 à 03 UTC
Vent 12 kt de ouest
Visibilité 10 km ou plus
Nuages fragmentés à une hauteur de 1800 ft
Temporairement
du 05 à 08 UTC au 05 à 12 UTC
Nuages fragmentés à une hauteur de 1200 ft
Temporairement
du 05 à 09 UTC au 05 à 16 UTC
Vent 16 kt de ouest avec des rafales jusqu'à 26 kt

TAF: LFMK 050603Z 0506/0603 28012KT 9999 BKN018 TEMPO 0508/0512 BKN012 TEMPO 0509/0516 27016G26KT

Observations et prévisions météorologiques de plus de 4000 aéroports (messages METAR et TAF).

Les stations disponibles sont représentées par des disques jaunes et rouges sur la carte.

Passer la souris dessus pour voir le nom de la station.

Cliquer dessus pour voir les observations et prévisions météorologiques.

Pour changer de carte: cliquez sur les boutons verts avec une croix noire pour zoomer, sur le bouton vert avec un tiret pour effectuer un zoom arrière, ou sur les flèches vertes pour les cartes adjacentes.


METAR-TAF: